Main page
METAR-TAF:

METAR-TAF

Airports :

Mashhad, Iran

Mashhad International Airport

latitude: 36-16N, longitude: 059-38E, elevation: 989 m

Current weather observation

The report was made 19 minutes ago, at 04:30 UTC
Wind 4 kt from the North/Northwest
Temperature 26°C
Humidity 16%
Pressure 1017 hPa
Visibility 10 km or more
no clouds below 1500 m and no cumulonimbus

METAR: OIMM 240430Z 33004KT CAVOK 26/M02 Q1016 A3003

Time: 09:19 (04:49 UTC)

Forecast

The report was made 5 hours and 49 minutes ago, at 23:00 UTC
Forecast valid from 24 at 00 UTC to 25 at 06 UTC
Wind 10 kt from the East/Northeast
Visibility 10 km or more
no clouds below 1500 m and no cumulonimbus
Temporary
from 24 at 14 UTC to 24 at 18 UTC
Wind 16 kt from the East/Northeast

TAF: OIMM 232300Z 2400/2506 07005MPS CAVOK TEMPO 2414/2418 07008MPS

Weather observations and forecasts of more than 4000 airports (METAR and TAF reports).

The available stations are represented by yellow and red dots on the map.

Hover mouse over dot to see the name of the station.

Then click to see weather observations and forecasts.

To change the map : click on the green buttons with a black cross to zoom in, on the green button with a dash to zoom out, or on the green arrows for adjacent maps.


METAR-TAF: